| time (UTC) | temp F | wind direction | speed MPH | gust MPH | rain 1hr in | rain 24hr in | rain mn in | humidity % | barometer mb |
| 20260502214520 | 81 | 257 | 1.0 | 3.0 | 0.00 | 0.00 | 0.00 | 23 | 1039.1 |
| 20260502213023 | 81 | 55 | 0.0 | 4.0 | 0.00 | 0.00 | 0.00 | 22 | 1039.1 |
| 20260502211524 | 81 | 283 | 0.0 | 6.0 | 0.00 | 0.00 | 0.00 | 22 | 1039.1 |
| 20260502210024 | 81 | 291 | 1.0 | 5.0 | 0.00 | 0.00 | 0.00 | 22 | 1039.1 |
| 20260502204525 | 80 | 12 | 1.0 | 3.0 | 0.00 | 0.00 | 0.00 | 22 | 1039.1 |
| 20260502203027 | 80 | 60 | 1.0 | 4.0 | 0.00 | 0.00 | 0.00 | 22 | 1039.1 |
| 20260502201531 | 80 | 14 | 0.0 | 3.0 | 0.00 | 0.00 | 0.00 | 25 | 1039.1 |
| 20260502200033 | 79 | 58 | 1.0 | 4.0 | 0.00 | 0.00 | 0.00 | 25 | 1039.1 |
| 20260502194538 | 80 | 288 | 0.0 | 3.0 | 0.00 | 0.00 | 0.00 | 26 | 1039.1 |
| 20260502193032 | 80 | 287 | 1.0 | 4.0 | 0.00 | 0.00 | 0.00 | 22 | 1039.1 |
| 20260502191533 | 79 | 281 | 0.0 | 3.0 | 0.00 | 0.00 | 0.00 | 22 | 1039.1 |
| 20260502190038 | 77 | 285 | 0.0 | 3.0 | 0.00 | 0.00 | 0.00 | 23 | 1039.1 |
| 20260502184555 | 78 | 254 | 0.0 | 3.0 | 0.00 | 0.00 | 0.00 | 23 | 1039.1 |
| 20260502183040 | 77 | 268 | 0.0 | 4.0 | 0.00 | 0.00 | 0.00 | 23 | 1039.1 |
| 20260502181540 | 77 | 274 | 1.0 | 3.0 | 0.00 | 0.00 | 0.00 | 20 | 1039.1 |
| 20260502163034 | 66 | 270 | 1.0 | 2.0 | 0.00 | 0.00 | 0.00 | 36 | 1039.1 |
| 20260502161529 | 64 | 43 | 0.0 | 4.0 | 0.00 | 0.00 | 0.00 | 36 | 1039.1 |
| 20260502151523 | 60 | 303 | 0.0 | 2.0 | 0.00 | 0.00 | 0.00 | 56 | 1039.1 |
| 20260502123054 | 51 | 311 | 0.0 | 0.0 | 0.00 | 0.00 | 0.00 | 64 | 1039.1 |
| 20260502121542 | 51 | 311 | 0.0 | 0.0 | 0.00 | 0.00 | 0.00 | 64 | 1039.1 |
| 20260502114546 | 52 | 311 | 0.0 | 0.0 | 0.00 | 0.00 | 0.00 | 64 | 1039.1 |
| 20260502113045 | 52 | 311 | 0.0 | 0.0 | 0.00 | 0.01 | 0.00 | 64 | 1039.1 |
| 20260502111548 | 52 | 311 | 0.0 | 0.0 | 0.00 | 0.01 | 0.00 | 64 | 1039.1 |
| 20260502110054 | 52 | 311 | 0.0 | 0.0 | 0.00 | 0.01 | 0.00 | 64 | 1039.1 |
| 20260502104551 | 52 | 311 | 0.0 | 0.0 | 0.00 | 0.01 | 0.00 | 64 | 1039.1 |
| 20260502103057 | 52 | 311 | 0.0 | 0.0 | 0.00 | 0.01 | 0.00 | 64 | 1039.1 |
| 20260502101631 | 52 | 311 | 0.0 | 0.0 | 0.00 | 0.01 | 0.00 | 64 | 1039.1 |
| 20260502100115 | 52 | 311 | 0.0 | 0.0 | 0.00 | 0.01 | 0.00 | 64 | 1039.1 |
| 20260502071503 | 53 | 4 | 0.0 | 0.0 | 0.00 | 0.01 | 0.00 | 61 | 1039.1 |
| 20260502070007 | 54 | 4 | 0.0 | 0.0 | 0.00 | 0.01 | 0.00 | 61 | 1039.1 |
| 20260502064511 | 54 | 8 | 0.0 | 0.0 | 0.00 | 0.01 | 0.00 | 61 | 1039.1 |
| 20260502063009 | 54 | 6 | 0.0 | 0.0 | 0.00 | 0.01 | 0.00 | 61 | 1039.1 |
| 20260502061514 | 55 | 7 | 0.0 | 2.0 | 0.00 | 0.01 | 0.00 | 61 | 1039.1 |
| 20260502060015 | 55 | 7 | 0.0 | 1.0 | 0.00 | 0.01 | 0.00 | 60 | 1039.1 |
| 20260502054518 | 56 | 95 | 0.0 | 1.0 | 0.00 | 0.01 | 0.00 | 59 | 1039.1 |
| 20260502053016 | 56 | 95 | 0.0 | 0.0 | 0.00 | 0.01 | 0.01 | 57 | 1039.1 |
| 20260502051527 | 56 | 14 | 0.0 | 0.0 | 0.00 | 0.01 | 0.01 | 56 | 1039.1 |
| 20260502050021 | 57 | 95 | 0.0 | 0.0 | 0.00 | 0.01 | 0.01 | 55 | 1039.1 |
| 20260502044529 | 57 | 4 | 0.0 | 0.0 | 0.00 | 0.01 | 0.01 | 55 | 1039.1 |
| 20260502043033 | 58 | 4 | 0.0 | 0.0 | 0.00 | 0.01 | 0.01 | 54 | 1039.1 |
| 20260502041540 | 58 | 4 | 0.0 | 0.0 | 0.00 | 0.01 | 0.01 | 55 | 1039.1 |
| 20260502040043 | 59 | 4 | 0.0 | 0.0 | 0.00 | 0.01 | 0.01 | 54 | 1039.1 |
| 20260502034541 | 59 | 4 | 0.0 | 0.0 | 0.00 | 0.01 | 0.01 | 54 | 1039.1 |
| 20260502033050 | 59 | 4 | 0.0 | 0.0 | 0.00 | 0.01 | 0.01 | 54 | 1039.1 |
| 20260502031551 | 60 | 4 | 0.0 | 0.0 | 0.00 | 0.01 | 0.01 | 54 | 1039.1 |
| 20260502030059 | 60 | 4 | 0.0 | 0.0 | 0.00 | 0.01 | 0.01 | 54 | 1039.1 |
| 20260502024553 | 60 | 4 | 0.0 | 0.0 | 0.00 | 0.01 | 0.01 | 54 | 1039.1 |
| 20260502023108 | 61 | 4 | 0.0 | 0.0 | 0.00 | 0.01 | 0.01 | 54 | 1039.1 |
| 20260502021553 | 61 | 4 | 0.0 | 0.0 | 0.00 | 0.01 | 0.01 | 54 | 1039.1 |
| 20260502020052 | 62 | 4 | 0.0 | 0.0 | 0.00 | 0.01 | 0.01 | 53 | 1039.1 |
| 20260502014555 | 62 | 4 | 0.0 | 0.0 | 0.00 | 0.01 | 0.01 | 53 | 1039.1 |
| 20260502013100 | 62 | 4 | 0.0 | 0.0 | 0.00 | 0.01 | 0.01 | 53 | 1039.1 |
| 20260502011605 | 63 | 8 | 0.0 | 0.0 | 0.00 | 0.01 | 0.01 | 52 | 1039.1 |
| 20260502010003 | 63 | 8 | 0.0 | 0.0 | 0.00 | 0.01 | 0.01 | 52 | 1039.1 |
| 20260502004506 | 63 | 8 | 0.0 | 0.0 | 0.00 | 0.01 | 0.01 | 51 | 1039.1 |
| 20260502003010 | 64 | 8 | 0.0 | 0.0 | 0.00 | 0.01 | 0.01 | 49 | 1039.1 |
| 20260502001515 | 64 | 12 | 0.0 | 0.0 | 0.00 | 0.01 | 0.01 | 48 | 1039.1 |
| 20260502000018 | 65 | 12 | 0.0 | 0.0 | 0.00 | 0.01 | 0.01 | 47 | 1039.1 |
| 20260501234524 | 65 | 28 | 0.0 | 0.0 | 0.00 | 0.01 | 0.01 | 47 | 1039.1 |
| 20260501233022 | 65 | 28 | 0.0 | 0.0 | 0.00 | 0.01 | 0.01 | 47 | 1039.1 |
| 20260501231523 | 65 | 28 | 0.0 | 0.0 | 0.00 | 0.01 | 0.01 | 47 | 1039.1 |
| 20260501230016 | 65 | 28 | 0.0 | 0.0 | 0.00 | 0.01 | 0.01 | 47 | 1039.1 |
| 20260501224523 | 65 | 28 | 0.0 | 0.0 | 0.00 | 0.01 | 0.01 | 46 | 1039.1 |
| 20260501223033 | 65 | 28 | 0.0 | 0.0 | 0.00 | 0.01 | 0.01 | 46 | 1039.1 |
| 20260501221532 | 64 | 28 | 0.0 | 0.0 | 0.00 | 0.01 | 0.01 | 45 | 1039.1 |
| 20260501220034 | 64 | 29 | 0.0 | 0.0 | 0.00 | 0.01 | 0.01 | 44 | 1039.1 |